Time;durP1;ratioP1;P1;durP2;ratioP2;P2;SDS_P1;SDS_P2;PMS_P1;PMS_P2;Temp;Humidity;BMP_temperature;BMP_pressure;BME280_temperature;BME280_humidity;BME280_pressure;Samples;Min_cycle;Max_cycle;Signal;HPM_P1;HPM_P2
2024/04/19 00:04:32;;;;;;;1.65;0.75;;;;;;;17.06;52.20;101175.44;11349196;26;20228;-60
2024/04/19 00:09:32;;;;;;;2.00;1.10;;;;;;;17.05;51.98;101163.09;11348125;26;20010;-58
2024/04/19 00:14:33;;;;;;;3.60;1.00;;;;;;;17.06;51.96;101156.69;11347161;26;20839;-59
2024/04/19 00:19:33;;;;;;;2.58;1.00;;;;;;;17.05;52.42;101155.06;11316086;26;20302;-59
2024/04/19 00:24:33;;;;;;;3.00;1.05;;;;;;;17.06;51.92;101134.44;11347572;26;20736;-59
2024/04/19 00:29:34;;;;;;;3.35;1.02;;;;;;;17.09;51.84;101117.81;11315486;26;19999;-59
2024/04/19 00:34:34;;;;;;;1.87;1.20;;;;;;;17.07;51.96;101126.13;11347070;26;20008;-59
2024/04/19 00:39:34;;;;;;;1.87;0.80;;;;;;;17.05;52.26;101108.69;11347373;26;20694;-59
2024/04/19 00:44:35;;;;;;;2.83;0.95;;;;;;;17.07;52.16;101115.41;11346871;26;20254;-60
2024/04/19 00:49:35;;;;;;;1.52;1.05;;;;;;;17.09;52.28;101099.06;11347221;26;20038;-60
2024/04/19 00:54:35;;;;;;;2.08;1.30;;;;;;;17.08;51.84;101084.84;11346327;26;20002;-59
2024/04/19 00:59:36;;;;;;;2.30;0.88;;;;;;;17.09;51.68;101073.06;11314188;26;20004;-59
2024/04/19 01:04:37;;;;;;;1.35;0.80;;;;;;;17.12;51.92;101077.06;11316998;26;19994;-59
2024/04/19 01:09:37;;;;;;;2.08;0.90;;;;;;;17.08;52.21;101065.31;11353474;26;20018;-59
2024/04/19 01:14:37;;;;;;;1.13;0.68;;;;;;;17.04;51.91;101029.41;11353351;26;19998;-59
2024/04/19 01:19:38;;;;;;;2.60;1.00;;;;;;;17.07;51.93;101026.19;11352768;26;20067;-60
2024/04/19 01:24:47;;;;;;;2.77;1.53;;;;;;;17.12;51.72;101018.13;11321057;26;20834;-60
2024/04/19 01:29:47;;;;;;;1.52;0.80;;;;;;;17.12;51.75;101005.50;11351375;26;20275;-59
2024/04/19 01:34:47;;;;;;;2.47;0.80;;;;;;;17.10;51.92;100996.97;11330406;26;20008;-60
2024/04/19 01:39:48;;;;;;;1.20;0.73;;;;;;;17.07;51.75;100989.50;11352817;26;20004;-59
2024/04/19 01:44:48;;;;;;;1.67;0.90;;;;;;;17.09;51.96;100979.28;11352540;26;20215;-60
2024/04/19 01:49:48;;;;;;;3.40;1.20;;;;;;;17.07;52.16;100962.69;11352657;26;20639;-60
2024/04/19 01:54:49;;;;;;;2.25;1.08;;;;;;;17.06;52.16;100954.94;11319726;26;20262;-59
2024/04/19 01:59:49;;;;;;;3.27;1.10;;;;;;;17.08;52.14;100948.22;11352598;26;20010;-59
2024/04/19 02:04:49;;;;;;;2.88;0.90;;;;;;;17.08;52.16;100937.50;11351161;26;20235;-59
2024/04/19 02:09:50;;;;;;;3.10;0.80;;;;;;;17.09;52.57;100917.66;11352233;26;20015;-60
2024/04/19 02:14:51;;;;;;;1.43;0.60;;;;;;;17.10;52.11;100913.09;11349040;26;20270;-59
2024/04/19 02:19:51;;;;;;;1.67;0.50;;;;;;;17.09;52.19;100900.78;11351783;26;20644;-60
2024/04/19 02:24:51;;;;;;;1.15;0.65;;;;;;;17.09;52.61;100892.75;11351089;26;20038;-60
2024/04/19 02:35:10;;;;;;;0.93;0.50;;;;;;;17.13;52.24;100861.63;11360458;26;19998;-59
2024/04/19 02:40:11;;;;;;;3.40;0.90;;;;;;;17.12;51.95;100857.34;11351746;26;19998;-60
2024/04/19 02:45:11;;;;;;;1.70;0.73;;;;;;;17.08;52.33;100837.59;11350211;26;20223;-60
2024/04/19 02:50:11;;;;;;;1.57;0.63;;;;;;;17.10;52.47;100832.72;11351295;26;20231;-60
2024/04/19 02:55:12;;;;;;;2.78;1.25;;;;;;;17.08;52.17;100826.88;11349664;26;20235;-59
2024/04/19 03:00:13;;;;;;;1.13;0.97;;;;;;;17.07;52.70;100817.22;11350496;26;19998;-59
2024/04/19 03:05:13;;;;;;;1.73;0.70;;;;;;;17.10;52.27;100789.88;11350079;26;20215;-59
2024/04/19 03:10:14;;;;;;;0.90;0.60;;;;;;;17.09;51.97;100790.97;11350997;26;20074;-59
2024/04/19 03:15:14;;;;;;;2.30;0.60;;;;;;;17.06;52.35;100778.94;11349186;26;20009;-59
2024/04/19 03:20:14;;;;;;;1.55;0.60;;;;;;;17.10;52.65;100768.44;11350713;26;20215;-60
2024/04/19 03:25:15;;;;;;;1.52;0.63;;;;;;;17.08;52.77;100763.38;11348754;26;20014;-60
2024/04/19 03:30:25;;;;;;;1.00;0.60;;;;;;;17.06;52.76;100746.78;11349204;26;19998;-60
2024/04/19 03:35:25;;;;;;;2.15;0.85;;;;;;;17.08;52.82;100752.66;11355386;26;20215;-60
2024/04/19 03:40:26;;;;;;;1.60;0.60;;;;;;;17.11;51.97;100740.56;11350191;26;19994;-59
2024/04/19 03:45:41;;;;;;;1.00;0.57;;;;;;;17.09;52.64;100726.66;11348183;26;20219;-59
2024/04/19 03:50:46;;;;;;;1.90;0.60;;;;;;;17.07;52.00;100705.50;11349065;26;20460;-60
2024/04/19 03:55:46;;;;;;;1.75;0.70;;;;;;;17.05;52.60;100701.50;11316468;26;20009;-60
2024/04/19 04:00:47;;;;;;;1.05;0.35;;;;;;;17.06;52.63;100687.06;11348614;26;20417;-60
2024/04/19 04:05:51;;;;;;;0.93;0.50;;;;;;;17.13;52.08;100677.56;11347425;26;20006;-59
2024/04/19 04:10:51;;;;;;;1.42;0.70;;;;;;;17.08;52.85;100671.50;11343871;26;20426;-59
2024/04/19 04:15:51;;;;;;;1.20;0.50;;;;;;;17.03;52.27;100676.88;11342286;26;20035;-60
2024/04/19 04:20:52;;;;;;;1.00;0.50;;;;;;;17.00;52.87;100656.03;11342600;26;20282;-59
2024/04/19 04:25:52;;;;;;;1.20;0.60;;;;;;;16.98;52.90;100659.00;11339211;26;20305;-59
2024/04/19 04:30:53;;;;;;;0.88;0.47;;;;;;;17.00;53.06;100648.78;11345903;26;21170;-60
2024/04/19 04:35:53;;;;;;;1.43;0.60;;;;;;;17.00;52.50;100637.28;11345205;26;20079;-60
2024/04/19 04:40:53;;;;;;;1.07;0.30;;;;;;;16.95;52.60;100638.94;11342725;26;20636;-59
2024/04/19 04:45:53;;;;;;;0.90;0.20;;;;;;;16.99;52.64;100636.50;11339481;26;20219;-60
2024/04/19 04:50:54;;;;;;;1.40;0.60;;;;;;;17.01;52.98;100628.97;11340571;26;20208;-60
2024/04/19 04:55:54;;;;;;;0.65;0.40;;;;;;;17.06;52.54;100625.44;11344274;26;20211;-60
2024/04/19 05:00:57;;;;;;;0.77;0.40;;;;;;;17.09;52.98;100630.22;11345601;26;20631;-60
2024/04/19 05:05:58;;;;;;;4.65;0.70;;;;;;;17.13;52.73;100620.50;11345512;26;20266;-61
2024/04/19 05:10:58;;;;;;;5.33;0.70;;;;;;;17.26;53.13;100606.41;11345892;26;20006;-60
2024/04/19 05:15:59;;;;;;;5.40;1.00;;;;;;;17.45;53.53;100609.09;11339932;26;20272;-61
2024/04/19 05:21:00;;;;;;;9.73;0.98;;;;;;;17.52;54.50;100607.66;11311886;26;20273;-64
2024/04/19 05:26:03;;;;;;;8.38;0.90;;;;;;;17.60;53.80;100608.06;11344648;26;20009;-61
2024/04/19 05:31:04;;;;;;;6.72;1.10;;;;;;;17.52;54.43;100604.97;11313809;26;20007;-63
2024/04/19 05:36:04;;;;;;;23.87;2.23;;;;;;;17.52;54.65;100607.66;11312731;26;20852;-62
2024/04/19 05:41:05;;;;;;;15.15;1.40;;;;;;;17.45;54.85;100603.72;11344926;26;20334;-64
2024/04/19 05:46:05;;;;;;;27.25;3.55;;;;;;;17.34;54.42;100600.41;11309863;26;20399;-62
2024/04/19 05:51:05;;;;;;;17.27;2.53;;;;;;;17.40;54.97;100599.22;11347533;26;20456;-61
2024/04/19 05:56:06;;;;;;;16.70;2.60;;;;;;;17.34;54.78;100602.28;11318028;26;20255;-64
2024/04/19 06:01:06;;;;;;;20.02;3.15;;;;;;;17.21;55.80;100595.75;11352537;26;20271;-62
2024/04/19 06:06:07;;;;;;;20.77;3.33;;;;;;;17.14;55.45;100592.63;11313781;26;19998;-63
2024/04/19 06:11:07;;;;;;;14.88;2.58;;;;;;;17.02;55.55;100602.97;11348686;26;20227;-61
2024/04/19 06:16:10;;;;;;;27.45;3.70;;;;;;;17.02;55.33;100601.09;11350551;26;20013;-63
2024/04/19 06:21:10;;;;;;;15.43;2.85;;;;;;;16.97;55.55;100603.06;11319797;26;20005;-63
2024/04/19 06:26:11;;;;;;;10.90;2.40;;;;;;;16.91;55.41;100602.28;11351246;26;19998;-61
2024/04/19 06:31:12;;;;;;;13.97;2.30;;;;;;;16.90;55.72;100601.50;11309211;26;20828;-63
2024/04/19 06:36:12;;;;;;;11.43;2.92;;;;;;;16.86;55.59;100586.31;11315782;26;20219;-62
2024/04/19 06:41:12;;;;;;;8.55;2.45;;;;;;;16.88;55.64;100590.28;11340018;26;19994;-62
2024/04/19 06:46:13;;;;;;;6.80;1.93;;;;;;;16.90;55.08;100585.44;11321657;26;20009;-62
2024/04/19 06:51:14;;;;;;;10.27;2.08;;;;;;;16.93;55.18;100590.25;11339606;26;20250;-62
2024/04/19 06:56:14;;;;;;;12.95;2.05;;;;;;;16.95;55.19;100585.38;11318079;26;20074;-62
2024/04/19 07:01:15;;;;;;;7.70;2.17;;;;;;;16.97;54.90;100584.31;11317162;26;19998;-62
2024/04/19 07:06:15;;;;;;;7.70;2.08;;;;;;;16.97;55.35;100577.06;11349586;26;20224;-62
2024/04/19 07:11:15;;;;;;;9.47;3.23;;;;;;;16.96;54.69;100572.78;11350403;26;19998;-63
2024/04/19 07:16:16;;;;;;;10.47;2.87;;;;;;;16.99;55.29;100574.09;11317185;26;20219;-63
2024/04/19 07:21:17;;;;;;;10.98;2.70;;;;;;;16.97;55.52;100573.59;11350665;26;20219;-62
2024/04/19 07:26:17;;;;;;;12.90;1.42;;;;;;;16.96;54.88;100567.44;11317712;26;20010;-62
2024/04/19 07:31:18;;;;;;;6.77;1.37;;;;;;;16.95;55.08;100573.88;11357515;26;20821;-63
2024/04/19 07:36:18;;;;;;;5.83;1.93;;;;;;;16.98;54.91;100567.13;11349064;26;20257;-62
2024/04/19 07:41:18;;;;;;;5.43;2.07;;;;;;;16.99;54.75;100580.25;11349501;26;20260;-63
2024/04/19 07:46:19;;;;;;;10.80;1.67;;;;;;;16.99;54.78;100585.59;11347610;26;20276;-62
2024/04/19 07:51:19;;;;;;;4.30;1.47;;;;;;;17.01;54.73;100569.25;11347631;26;20212;-62
2024/04/19 07:56:19;;;;;;;7.57;1.90;;;;;;;17.03;54.73;100553.66;11347733;26;20336;-62
2024/04/19 08:01:20;;;;;;;9.63;2.70;;;;;;;17.05;54.66;100560.34;11317357;26;20710;-62
2024/04/19 08:06:20;;;;;;;4.93;1.02;;;;;;;16.99;54.68;100566.84;11348549;26;20306;-63
2024/04/19 08:11:20;;;;;;;5.30;1.40;;;;;;;16.99;55.01;100558.81;11315873;26;20888;-63
2024/04/19 08:16:21;;;;;;;4.45;1.55;;;;;;;17.02;54.38;100552.88;11311701;26;20224;-62
2024/04/19 08:21:21;;;;;;;6.03;1.40;;;;;;;17.03;54.97;100559.03;11346473;26;19994;-62
2024/04/19 08:26:21;;;;;;;5.40;1.60;;;;;;;16.99;54.63;100561.50;11366279;26;20220;-62
2024/04/19 08:31:22;;;;;;;5.17;1.23;;;;;;;16.99;54.86;100572.22;11361343;26;20219;-63
2024/04/19 08:36:22;;;;;;;4.63;1.27;;;;;;;17.00;54.78;100551.56;11316941;26;20272;-62
2024/04/19 08:41:23;;;;;;;4.65;1.15;;;;;;;17.01;55.17;100564.69;11347388;26;20215;-62
2024/04/19 08:46:24;;;;;;;8.15;1.00;;;;;;;17.00;55.15;100555.06;11339315;26;19994;-62
2024/04/19 08:51:25;;;;;;;3.58;1.45;;;;;;;16.99;54.89;100552.66;11344566;26;19998;-62
2024/04/19 08:56:26;;;;;;;7.30;1.20;;;;;;;16.97;54.58;100554.84;11313315;26;20472;-62
2024/04/19 09:01:26;;;;;;;3.65;1.20;;;;;;;17.03;54.45;100546.44;11344684;26;20009;-62
2024/04/19 09:06:27;;;;;;;6.60;1.00;;;;;;;17.02;54.66;100546.72;11345802;26;20012;-62
2024/04/19 09:11:28;;;;;;;4.55;1.17;;;;;;;17.01;54.76;100571.91;11283334;26;20357;-62
2024/04/19 09:16:31;;;;;;;7.73;1.13;;;;;;;17.00;54.71;100567.66;11314375;26;19994;-62
2024/04/19 09:21:31;;;;;;;3.28;1.05;;;;;;;17.04;54.71;100561.41;11313017;26;20211;-57
2024/04/19 09:26:32;;;;;;;2.78;0.70;;;;;;;17.03;55.27;100559.81;11348784;26;19997;-52
2024/04/19 09:31:32;;;;;;;3.67;1.00;;;;;;;16.99;54.70;100553.47;11362622;26;19998;-54
2024/04/19 09:36:33;;;;;;;3.33;0.88;;;;;;;16.94;54.92;100556.22;11356610;26;20069;-53
2024/04/19 09:41:34;;;;;;;3.50;0.68;;;;;;;16.90;55.13;100545.25;11318842;26;20006;-54
2024/04/19 09:46:35;;;;;;;4.68;0.82;;;;;;;16.89;55.69;100545.56;11335218;26;19994;-54
2024/04/19 09:51:46;;;;;;;3.10;0.80;;;;;;;16.86;55.51;100548.81;11319118;26;19994;-51
2024/04/19 09:57:00;;;;;;;3.85;0.70;;;;;;;16.82;55.50;100542.44;11352957;26;20030;-54
2024/04/19 10:02:02;;;;;;;3.03;0.85;;;;;;;16.80;56.01;100537.34;11352022;26;20078;-54
2024/04/19 10:07:04;;;;;;;4.65;1.15;;;;;;;16.81;55.95;100533.63;11317242;26;19994;-52
2024/04/19 10:12:05;;;;;;;2.72;0.90;;;;;;;16.80;55.69;100531.19;11289978;26;20010;-53
2024/04/19 10:17:07;;;;;;;4.10;0.73;;;;;;;16.79;55.78;100527.72;11352010;26;20008;-55
2024/04/19 10:22:08;;;;;;;1.90;0.88;;;;;;;16.77;56.13;100519.19;11351474;26;20010;-52
2024/04/19 10:27:10;;;;;;;1.23;0.60;;;;;;;16.76;55.91;100520.28;11349382;26;20010;-60
2024/04/19 10:32:15;;;;;;;1.52;0.40;;;;;;;16.77;56.29;100513.03;11329017;26;20033;-61
2024/04/19 10:37:16;;;;;;;1.17;0.40;;;;;;;16.77;55.66;100510.38;11330189;26;20017;-61
2024/04/19 10:42:20;;;;;;;0.83;0.40;;;;;;;16.79;56.04;100511.66;11308472;26;20562;-61
2024/04/19 10:47:21;;;;;;;1.30;0.40;;;;;;;16.81;56.05;100503.34;11372275;26;20291;-62
2024/04/19 10:52:22;;;;;;;1.80;0.47;;;;;;;16.82;56.21;100516.47;11312209;26;19994;-60
2024/04/19 10:57:23;;;;;;;1.00;0.30;;;;;;;16.81;55.69;100551.53;11351987;26;19998;-61
2024/04/19 11:02:25;;;;;;;3.70;0.40;;;;;;;16.81;55.88;100547.00;11350713;26;20434;-60
2024/04/19 11:07:26;;;;;;;1.88;0.50;;;;;;;16.87;56.18;100551.19;11314960;26;20018;-59
2024/04/19 11:12:26;;;;;;;0.85;0.40;;;;;;;16.87;55.81;100553.88;11310703;26;20013;-60
2024/04/19 11:17:27;;;;;;;1.02;0.40;;;;;;;16.86;56.58;100549.59;11347703;26;20322;-59
2024/04/19 11:22:27;;;;;;;0.85;0.50;;;;;;;16.87;55.95;100542.38;11347569;26;19990;-59
2024/04/19 11:27:30;;;;;;;2.42;0.80;;;;;;;16.85;56.13;100533.84;11315225;26;20009;-61
2024/04/19 11:32:31;;;;;;;1.65;0.57;;;;;;;16.78;56.12;100542.22;11346554;26;20062;-59
2024/04/19 11:37:32;;;;;;;1.40;0.32;;;;;;;16.78;56.25;100558.28;11348382;26;20062;-58
2024/04/19 11:42:33;;;;;;;3.40;0.50;;;;;;;16.81;56.33;100554.22;11348355;26;19990;-58
2024/04/19 11:47:34;;;;;;;4.07;0.87;;;;;;;16.74;56.25;100561.81;11319741;26;20022;-60
2024/04/19 11:52:34;;;;;;;2.20;0.50;;;;;;;16.79;56.21;100557.19;11346792;26;20223;-61
2024/04/19 11:57:34;;;;;;;6.90;0.50;;;;;;;16.76;56.40;100552.41;11347185;26;20104;-61
2024/04/19 12:02:34;;;;;;;2.92;0.47;;;;;;;16.70;56.05;100553.56;11315587;26;20224;-62
2024/04/19 12:07:35;;;;;;;6.33;0.80;;;;;;;16.67;56.28;100554.09;11347646;26;20027;-62
2024/04/19 12:12:35;;;;;;;2.50;0.93;;;;;;;16.71;56.27;100551.69;11314568;26;20841;-56
2024/04/19 12:17:36;;;;;;;21.30;3.25;;;;;;;16.86;56.48;100557.66;11339902;26;20212;-59
2024/04/19 12:22:36;;;;;;;26.40;3.10;;;;;;;16.88;56.69;100558.16;11327038;26;20475;-60
2024/04/19 12:27:36;;;;;;;35.47;3.60;;;;;;;16.90;57.31;100611.41;11330033;26;19994;-60
2024/04/19 12:32:38;;;;;;;37.93;3.90;;;;;;;16.87;57.14;100599.41;11355055;26;20219;-57
2024/04/19 12:37:38;;;;;;;33.83;5.55;;;;;;;16.88;57.69;100608.22;11346640;26;20257;-60
2024/04/19 12:42:39;;;;;;;36.42;4.60;;;;;;;16.95;56.78;100598.78;11345678;26;19994;-60
2024/04/19 12:47:39;;;;;;;21.33;3.45;;;;;;;16.97;57.01;100616.44;11344942;26;20005;-60
2024/04/19 12:52:39;;;;;;;17.75;2.83;;;;;;;16.86;56.83;100631.84;11330433;26;20078;-59
2024/04/19 12:57:40;;;;;;;20.90;3.63;;;;;;;16.84;57.27;100631.31;11334534;26;19999;-59
2024/04/19 13:02:40;;;;;;;30.73;4.17;;;;;;;16.95;57.15;100640.84;11343418;26;19994;-59
2024/04/19 13:07:41;;;;;;;26.65;4.15;;;;;;;17.04;57.01;100647.13;11313380;26;20551;-59
2024/04/19 13:12:41;;;;;;;34.70;5.30;;;;;;;16.98;57.39;100642.13;11340182;26;20456;-59
2024/04/19 13:17:41;;;;;;;24.10;4.17;;;;;;;16.93;57.25;100634.97;11343680;26;20044;-59
2024/04/19 13:22:43;;;;;;;23.60;4.88;;;;;;;16.95;56.92;100646.19;11345245;26;20268;-59
2024/04/19 13:27:43;;;;;;;34.25;4.70;;;;;;;17.04;56.70;100640.97;11344939;26;19990;-59
2024/04/19 13:32:43;;;;;;;14.53;2.87;;;;;;;17.08;56.48;100632.09;11364747;26;20001;-59
2024/04/19 13:37:44;;;;;;;26.83;3.70;;;;;;;17.02;56.44;100643.94;11348541;26;20611;-59
2024/04/19 13:42:44;;;;;;;18.15;2.65;;;;;;;16.98;56.61;100647.50;11345660;26;20063;-61
2024/04/19 13:47:44;;;;;;;15.43;2.50;;;;;;;16.94;56.55;100645.41;11280839;26;19993;-61
2024/04/19 13:52:46;;;;;;;15.63;3.33;;;;;;;16.88;56.18;100665.28;11367601;26;20215;-64
2024/04/19 13:57:46;;;;;;;22.92;4.10;;;;;;;16.83;56.64;100654.63;11340541;26;20004;-63
2024/04/19 14:02:48;;;;;;;21.08;3.92;;;;;;;16.84;56.86;100664.25;11343339;26;20005;-60
2024/04/19 14:07:49;;;;;;;26.67;3.63;;;;;;;16.99;56.12;100667.84;11361589;26;20338;-58
2024/04/19 14:12:57;;;;;;;27.05;3.88;;;;;;;17.08;55.45;100701.75;11343860;26;20452;-58
2024/04/19 14:17:58;;;;;;;33.20;4.50;;;;;;;16.98;55.77;100693.03;11384261;26;20002;-59
2024/04/19 14:22:58;;;;;;;13.45;3.03;;;;;;;16.93;55.68;100686.66;11322146;26;20010;-60
2024/04/19 14:27:59;;;;;;;17.88;3.30;;;;;;;16.90;56.17;100681.03;11351387;26;20009;-57
2024/04/19 14:32:59;;;;;;;22.60;5.28;;;;;;;16.84;56.23;100703.63;11367641;26;20005;-56
2024/04/19 14:37:59;;;;;;;19.70;3.23;;;;;;;16.86;56.45;100704.94;11366373;26;20009;-59
2024/04/19 14:43:00;;;;;;;17.87;3.80;;;;;;;16.93;56.03;100699.25;11366151;26;20267;-60
2024/04/19 14:48:00;;;;;;;22.90;3.40;;;;;;;16.98;55.73;100693.81;11377974;26;20370;-59
2024/04/19 14:53:00;;;;;;;25.90;4.30;;;;;;;17.02;54.77;100708.22;11364097;26;19998;-60
2024/04/19 14:58:01;;;;;;;15.07;3.93;;;;;;;16.94;55.85;100733.78;11367670;26;20236;-60
2024/04/19 15:03:01;;;;;;;28.10;3.87;;;;;;;16.99;55.79;100716.06;11298329;26;20925;-60
2024/04/19 15:08:07;;;;;;;25.37;4.30;;;;;;;17.02;55.79;100729.66;11341045;26;20332;-60
2024/04/19 15:13:07;;;;;;;25.35;4.00;;;;;;;17.04;55.46;100718.66;11318603;26;20286;-60
2024/04/19 15:18:10;;;;;;;17.20;3.40;;;;;;;16.99;55.47;100732.91;11320066;26;19998;-60
2024/04/19 15:23:10;;;;;;;13.80;2.53;;;;;;;16.93;55.47;100739.44;11300151;26;20007;-61
2024/04/19 15:28:11;;;;;;;21.25;3.88;;;;;;;16.94;55.44;100733.78;11309997;26;20060;-60
2024/04/19 15:33:12;;;;;;;16.50;3.08;;;;;;;16.97;56.10;100756.50;11294044;26;20451;-60
2024/04/19 15:38:13;;;;;;;12.82;2.67;;;;;;;16.99;55.17;100751.66;11327209;26;20020;-60
2024/04/19 15:43:13;;;;;;;15.40;2.78;;;;;;;16.99;55.15;100756.22;11304580;26;20002;-60
2024/04/19 15:48:14;;;;;;;19.23;3.00;;;;;;;16.95;55.37;100764.84;11324792;26;20009;-59
2024/04/19 15:53:18;;;;;;;10.88;2.28;;;;;;;16.89;55.26;100763.28;11333462;26;20017;-60
2024/04/19 15:58:19;;;;;;;9.50;2.10;;;;;;;16.85;55.15;100758.78;11331603;26;19998;-59
2024/04/19 16:03:19;;;;;;;10.55;2.38;;;;;;;16.87;55.48;100757.41;11298240;26;19996;-60
2024/04/19 16:08:20;;;;;;;3.90;1.52;;;;;;;16.87;54.81;100760.09;11290707;26;19995;-59
2024/04/19 16:13:21;;;;;;;14.20;2.97;;;;;;;16.90;54.76;100756.03;11316415;26;19995;-58
2024/04/19 16:18:21;;;;;;;11.73;2.17;;;;;;;16.95;56.31;100764.03;11300079;26;19994;-60
2024/04/19 16:23:22;;;;;;;19.30;2.33;;;;;;;17.02;57.57;100777.09;11263447;26;19995;-62
2024/04/19 16:28:22;;;;;;;12.50;3.80;;;;;;;17.21;57.24;100772.59;11302123;26;20343;-60
2024/04/19 16:33:23;;;;;;;14.55;2.45;;;;;;;17.15;57.05;100800.53;11313177;26;20001;-61
2024/04/19 16:38:23;;;;;;;17.37;3.73;;;;;;;17.12;56.68;100790.38;11315455;26;20485;-61
2024/04/19 16:43:24;;;;;;;16.17;4.32;;;;;;;17.15;56.10;100808.56;11298732;26;20223;-60
2024/04/19 16:48:25;;;;;;;34.63;3.70;;;;;;;16.98;56.50;100851.84;11337682;26;20019;-62
2024/04/19 16:53:25;;;;;;;40.33;3.92;;;;;;;16.91;56.77;100854.06;11303179;26;20276;-61
2024/04/19 16:58:25;;;;;;;20.90;3.17;;;;;;;17.08;55.64;100845.63;11251937;26;20568;-60
2024/04/19 17:03:26;;;;;;;39.23;5.53;;;;;;;17.02;56.38;100855.56;11265682;26;20265;-61
2024/04/19 17:08:26;;;;;;;28.20;4.32;;;;;;;16.93;57.11;100862.63;11292265;26;20268;-60
2024/04/19 17:13:27;;;;;;;25.97;3.33;;;;;;;16.87;57.00;100871.75;11312459;26;19995;-60
2024/04/19 17:18:27;;;;;;;33.55;6.22;;;;;;;16.86;56.74;100865.63;11283753;26;20261;-59
2024/04/19 17:23:27;;;;;;;23.67;4.00;;;;;;;16.82;57.21;100861.91;11317502;26;20023;-60
2024/04/19 17:28:28;;;;;;;19.70;3.95;;;;;;;16.84;56.83;100870.47;11332602;26;20239;-58
2024/04/19 17:33:28;;;;;;;14.73;4.03;;;;;;;16.80;57.22;100888.13;11342403;26;20493;-58
2024/04/19 17:38:28;;;;;;;24.15;4.28;;;;;;;16.82;57.18;100886.00;11286367;26;20323;-59
2024/04/19 17:43:29;;;;;;;24.33;3.60;;;;;;;16.76;56.53;100905.06;11307053;26;20460;-59
2024/04/19 17:48:29;;;;;;;20.58;2.97;;;;;;;16.73;56.27;100902.94;11269581;26;20215;-59
2024/04/19 17:53:29;;;;;;;25.53;4.20;;;;;;;16.77;56.79;100920.03;11314590;26;20013;-61
2024/04/19 17:58:30;;;;;;;19.13;4.50;;;;;;;16.79;55.47;100917.88;11322728;26;20248;-59
2024/04/19 18:03:30;;;;;;;14.73;4.60;;;;;;;16.79;55.33;100931.28;11313768;26;20216;-60
2024/04/19 18:08:30;;;;;;;9.47;3.17;;;;;;;16.82;54.84;100946.81;11312133;26;20231;-58
2024/04/19 18:13:31;;;;;;;8.70;2.70;;;;;;;16.82;54.74;100944.91;11311029;26;20805;-59
2024/04/19 18:18:31;;;;;;;13.50;2.70;;;;;;;16.85;55.20;100954.28;11304363;26;20056;-58
2024/04/19 18:23:31;;;;;;;9.98;3.33;;;;;;;16.85;54.58;100960.44;11295490;26;20232;-58
2024/04/19 18:28:32;;;;;;;10.35;2.58;;;;;;;16.92;55.06;100968.13;11293876;26;20074;-60
2024/04/19 18:33:33;;;;;;;13.07;2.75;;;;;;;16.94;54.73;100972.16;11308016;26;19998;-59
2024/04/19 18:38:33;;;;;;;12.60;2.13;;;;;;;16.91;55.68;100985.28;11320736;26;20092;-60
2024/04/19 18:43:34;;;;;;;13.37;2.67;;;;;;;17.00;55.37;100985.50;11275218;26;20341;-58
2024/04/19 18:48:34;;;;;;;9.70;3.17;;;;;;;16.92;54.52;101002.97;11298991;26;20251;-60
2024/04/19 18:53:34;;;;;;;7.60;2.40;;;;;;;16.89;54.82;101012.34;11309950;26;19990;-60
2024/04/19 18:58:37;;;;;;;4.97;1.87;;;;;;;16.88;55.10;101020.66;11338379;26;20264;-60
2024/04/19 19:03:38;;;;;;;7.22;1.73;;;;;;;16.86;54.55;101014.78;11349199;26;20558;-60
2024/04/19 19:08:38;;;;;;;8.77;2.60;;;;;;;16.85;54.92;101048.00;11312088;26;20013;-59
2024/04/19 19:13:42;;;;;;;5.50;2.00;;;;;;;16.81;54.47;101053.13;11320027;26;20362;-59
2024/04/19 19:18:43;;;;;;;5.28;2.42;;;;;;;16.80;54.61;101059.53;11348973;26;20609;-59
2024/04/19 19:23:44;;;;;;;8.88;2.83;;;;;;;16.78;54.81;101101.06;11350752;26;19998;-59
2024/04/19 19:28:46;;;;;;;3.70;1.50;;;;;;;16.82;54.67;101102.94;11349960;26;20017;-59
2024/04/19 19:33:46;;;;;;;6.53;1.67;;;;;;;16.84;54.81;101108.00;11317758;26;19998;-58
2024/04/19 19:38:47;;;;;;;5.87;1.90;;;;;;;16.83;54.47;101114.44;11317493;26;20006;-59
2024/04/19 19:43:47;;;;;;;5.13;1.48;;;;;;;16.86;54.39;101138.00;11317821;26;20275;-59
2024/04/19 19:48:49;;;;;;;5.38;1.60;;;;;;;16.87;54.50;101136.91;11348730;26;20013;-59
2024/04/19 19:53:50;;;;;;;4.85;1.88;;;;;;;16.87;54.48;101147.63;11349573;26;20477;-59
2024/04/19 19:58:50;;;;;;;5.40;1.63;;;;;;;16.94;53.82;101140.91;11348234;26;19995;-59
2024/04/19 20:09:09;;;;;;;5.43;1.42;;;;;;;16.99;53.79;101123.22;11347732;26;19994;-59
2024/04/19 20:14:10;;;;;;;4.50;1.10;;;;;;;16.97;53.59;101134.19;11316436;26;19994;-59
2024/04/19 20:19:10;;;;;;;3.10;1.00;;;;;;;16.89;53.45;101154.31;11347572;26;20586;-59
2024/04/19 20:24:10;;;;;;;4.80;1.73;;;;;;;16.93;53.36;101174.13;11348095;26;20306;-59
2024/04/19 20:29:14;;;;;;;3.57;1.30;;;;;;;16.92;53.89;101185.09;11347490;26;20243;-59
2024/04/19 20:34:17;;;;;;;3.53;1.15;;;;;;;16.87;53.63;101188.59;11348063;26;20220;-60
2024/04/19 20:39:17;;;;;;;3.88;1.33;;;;;;;16.85;53.25;101211.38;11315738;26;20124;-59
2024/04/19 20:44:17;;;;;;;3.22;1.13;;;;;;;16.88;53.39;101187.53;11348253;26;20440;-59
2024/04/19 20:49:18;;;;;;;1.73;0.70;;;;;;;16.97;52.73;101198.50;11346641;26;20002;-60
2024/04/19 20:54:18;;;;;;;1.40;0.70;;;;;;;16.98;53.05;101210.81;11315349;26;20267;-59
2024/04/19 20:59:18;;;;;;;5.33;1.37;;;;;;;16.94;52.99;101217.78;11346686;26;20421;-59
2024/04/19 21:04:19;;;;;;;1.98;0.57;;;;;;;16.89;52.81;101199.84;11347180;26;20576;-59
2024/04/19 21:09:19;;;;;;;3.63;0.87;;;;;;;16.87;53.60;101212.72;11345740;26;20009;-59
2024/04/19 21:14:19;;;;;;;3.55;1.20;;;;;;;16.87;53.01;101204.66;11347560;26;20264;-59
2024/04/19 21:19:21;;;;;;;2.30;0.57;;;;;;;16.92;52.92;101212.69;11345384;26;19994;-59
2024/04/19 21:24:21;;;;;;;1.85;0.80;;;;;;;16.94;52.64;101212.44;11353337;26;19998;-59
2024/04/19 21:29:25;;;;;;;2.58;1.05;;;;;;;17.00;52.68;101223.94;11352624;26;20326;-60
2024/04/19 21:34:25;;;;;;;2.15;0.70;;;;;;;16.99;53.04;101230.34;11363923;26;20461;-59
2024/04/19 21:39:25;;;;;;;2.35;0.70;;;;;;;16.96;52.61;101242.44;11352355;26;20010;-59
2024/04/19 21:44:26;;;;;;;2.00;0.60;;;;;;;16.93;52.29;101249.13;11352925;26;20322;-60
2024/04/19 21:49:26;;;;;;;2.17;0.53;;;;;;;16.95;52.50;101254.22;11351846;26;20219;-59
2024/04/19 21:54:26;;;;;;;2.07;0.90;;;;;;;16.97;52.75;101253.94;11353439;26;20251;-60
2024/04/19 21:59:27;;;;;;;2.97;0.83;;;;;;;16.94;52.56;101260.66;11319956;26;20588;-60
2024/04/19 22:04:27;;;;;;;2.00;1.17;;;;;;;16.96;52.56;101255.81;11320277;26;20246;-60
2024/04/19 22:09:27;;;;;;;3.67;0.80;;;;;;;16.96;52.33;101263.84;11351794;26;20267;-59
2024/04/19 22:14:28;;;;;;;1.00;0.43;;;;;;;16.93;52.49;101270.56;11351957;26;20864;-59
2024/04/19 22:19:28;;;;;;;1.70;0.50;;;;;;;16.98;52.21;101266.25;11351204;26;20009;-59
2024/04/19 22:24:29;;;;;;;10.07;0.70;;;;;;;16.99;52.01;101276.69;11351543;26;20742;-61
2024/04/19 22:29:32;;;;;;;3.45;0.50;;;;;;;17.00;52.35;101285.53;11350964;26;20215;-60
2024/04/19 22:34:32;;;;;;;7.75;0.93;;;;;;;17.01;52.47;101290.63;11362144;26;19995;-61
2024/04/19 22:39:33;;;;;;;7.90;0.95;;;;;;;17.00;52.35;101304.28;11350637;26;20751;-61
2024/04/19 22:44:33;;;;;;;2.65;0.93;;;;;;;16.98;52.72;101312.59;11352067;26;20012;-60
2024/04/19 22:49:33;;;;;;;3.30;1.27;;;;;;;16.95;52.66;101313.94;11351363;26;20434;-60
2024/04/19 22:54:34;;;;;;;2.30;0.70;;;;;;;16.97;52.85;101324.41;11350966;26;20223;-61
2024/04/19 22:59:34;;;;;;;1.37;0.47;;;;;;;16.98;52.30;101319.84;11351293;26;20573;-60
2024/04/19 23:04:34;;;;;;;3.27;0.60;;;;;;;16.96;52.71;101330.81;11351047;26;20254;-60
2024/04/19 23:09:34;;;;;;;2.00;0.70;;;;;;;16.95;52.24;101323.88;11349906;26;20334;-60